sensor_id;sensor_type;location;lat;lon;timestamp;temperature;humidity
23562;DHT22;11959;49.418;8.728;2023-09-30T00:00:24;16.80;99.90
23562;DHT22;11959;49.418;8.728;2023-09-30T00:02:50;16.70;99.90
23562;DHT22;11959;49.418;8.728;2023-09-30T00:05:15;16.70;99.90
23562;DHT22;11959;49.418;8.728;2023-09-30T00:07:45;16.70;99.90
23562;DHT22;11959;49.418;8.728;2023-09-30T00:10:11;16.60;99.90
23562;DHT22;11959;49.418;8.728;2023-09-30T00:12:37;16.60;99.90
23562;DHT22;11959;49.418;8.728;2023-09-30T00:15:03;16.60;99.90
23562;DHT22;11959;49.418;8.728;2023-09-30T00:17:29;16.60;99.90
23562;DHT22;11959;49.418;8.728;2023-09-30T00:19:55;16.50;99.90
23562;DHT22;11959;49.418;8.728;2023-09-30T00:22:20;16.40;99.90
23562;DHT22;11959;49.418;8.728;2023-09-30T00:24:46;16.40;99.90
23562;DHT22;11959;49.418;8.728;2023-09-30T00:27:12;16.30;99.90
23562;DHT22;11959;49.418;8.728;2023-09-30T00:29:38;16.30;99.90
23562;DHT22;11959;49.418;8.728;2023-09-30T00:32:04;16.30;99.90
23562;DHT22;11959;49.418;8.728;2023-09-30T00:34:33;16.30;99.90
23562;DHT22;11959;49.418;8.728;2023-09-30T00:36:59;16.30;99.90
23562;DHT22;11959;49.418;8.728;2023-09-30T00:39:24;16.30;99.90
23562;DHT22;11959;49.418;8.728;2023-09-30T00:41:52;16.20;99.90
23562;DHT22;11959;49.418;8.728;2023-09-30T00:44:19;16.20;99.90
23562;DHT22;11959;49.418;8.728;2023-09-30T00:46:45;16.20;99.90
23562;DHT22;11959;49.418;8.728;2023-09-30T00:49:14;16.30;99.90
23562;DHT22;11959;49.418;8.728;2023-09-30T00:51:40;16.30;99.90
23562;DHT22;11959;49.418;8.728;2023-09-30T00:54:06;16.30;99.90
23562;DHT22;11959;49.418;8.728;2023-09-30T00:56:35;16.30;99.90
23562;DHT22;11959;49.418;8.728;2023-09-30T00:59:02;16.30;99.90
23562;DHT22;11959;49.418;8.728;2023-09-30T01:01:29;16.30;99.90
23562;DHT22;11959;49.418;8.728;2023-09-30T01:03:55;16.30;99.90
23562;DHT22;11959;49.418;8.728;2023-09-30T01:06:20;16.30;99.90
23562;DHT22;11959;49.418;8.728;2023-09-30T01:08:46;16.30;99.90
23562;DHT22;11959;49.418;8.728;2023-09-30T01:11:13;16.30;99.90
23562;DHT22;11959;49.418;8.728;2023-09-30T01:13:39;16.30;99.90
23562;DHT22;11959;49.418;8.728;2023-09-30T01:18:31;16.30;99.90
23562;DHT22;11959;49.418;8.728;2023-09-30T01:20:59;16.30;99.90
23562;DHT22;11959;49.418;8.728;2023-09-30T01:23:27;16.30;99.90
23562;DHT22;11959;49.418;8.728;2023-09-30T01:25:53;16.30;99.90
23562;DHT22;11959;49.418;8.728;2023-09-30T01:28:19;16.30;99.90
23562;DHT22;11959;49.418;8.728;2023-09-30T01:30:44;16.30;99.90
23562;DHT22;11959;49.418;8.728;2023-09-30T01:33:10;16.30;99.90
23562;DHT22;11959;49.418;8.728;2023-09-30T01:35:36;16.30;99.90
23562;DHT22;11959;49.418;8.728;2023-09-30T01:38:02;16.30;99.90
23562;DHT22;11959;49.418;8.728;2023-09-30T01:40:27;16.30;99.90
23562;DHT22;11959;49.418;8.728;2023-09-30T01:42:53;16.30;99.90
23562;DHT22;11959;49.418;8.728;2023-09-30T01:45:18;16.30;99.90
23562;DHT22;11959;49.418;8.728;2023-09-30T01:47:44;16.30;99.90
23562;DHT22;11959;49.418;8.728;2023-09-30T01:50:10;16.30;99.90
23562;DHT22;11959;49.418;8.728;2023-09-30T01:52:36;16.40;99.90
23562;DHT22;11959;49.418;8.728;2023-09-30T01:55:01;16.30;99.90
23562;DHT22;11959;49.418;8.728;2023-09-30T01:57:27;16.30;99.90
23562;DHT22;11959;49.418;8.728;2023-09-30T01:59:53;16.30;99.90
23562;DHT22;11959;49.418;8.728;2023-09-30T02:02:18;16.30;99.90
23562;DHT22;11959;49.418;8.728;2023-09-30T02:04:44;16.30;99.90
23562;DHT22;11959;49.418;8.728;2023-09-30T02:07:09;16.30;99.90
23562;DHT22;11959;49.418;8.728;2023-09-30T02:09:35;16.30;99.90
23562;DHT22;11959;49.418;8.728;2023-09-30T02:12:01;16.30;99.90
23562;DHT22;11959;49.418;8.728;2023-09-30T02:14:27;16.30;99.90
23562;DHT22;11959;49.418;8.728;2023-09-30T02:16:53;16.30;99.90
23562;DHT22;11959;49.418;8.728;2023-09-30T02:19:19;16.30;99.90
23562;DHT22;11959;49.418;8.728;2023-09-30T02:21:45;16.30;99.90
23562;DHT22;11959;49.418;8.728;2023-09-30T02:24:11;16.30;99.90
23562;DHT22;11959;49.418;8.728;2023-09-30T02:26:36;16.30;99.90
23562;DHT22;11959;49.418;8.728;2023-09-30T02:29:04;16.30;99.90
23562;DHT22;11959;49.418;8.728;2023-09-30T02:31:33;16.30;99.90
23562;DHT22;11959;49.418;8.728;2023-09-30T02:33:59;16.20;99.90
23562;DHT22;11959;49.418;8.728;2023-09-30T02:36:24;16.20;99.90
23562;DHT22;11959;49.418;8.728;2023-09-30T02:38:50;16.20;99.90
23562;DHT22;11959;49.418;8.728;2023-09-30T02:41:16;16.20;99.90
23562;DHT22;11959;49.418;8.728;2023-09-30T02:43:42;16.20;99.90
23562;DHT22;11959;49.418;8.728;2023-09-30T02:46:08;16.10;99.90
23562;DHT22;11959;49.418;8.728;2023-09-30T02:48:34;16.10;99.90
23562;DHT22;11959;49.418;8.728;2023-09-30T02:50:59;16.00;99.90
23562;DHT22;11959;49.418;8.728;2023-09-30T02:53:25;16.00;99.90
23562;DHT22;11959;49.418;8.728;2023-09-30T02:55:51;15.90;99.90
23562;DHT22;11959;49.418;8.728;2023-09-30T02:58:22;15.90;99.90
23562;DHT22;11959;49.418;8.728;2023-09-30T03:00:48;15.90;99.90
23562;DHT22;11959;49.418;8.728;2023-09-30T03:03:14;15.90;99.90
23562;DHT22;11959;49.418;8.728;2023-09-30T03:05:41;15.90;99.90
23562;DHT22;11959;49.418;8.728;2023-09-30T03:08:06;15.80;99.90
23562;DHT22;11959;49.418;8.728;2023-09-30T03:10:32;15.80;99.90
23562;DHT22;11959;49.418;8.728;2023-09-30T03:12:59;15.70;99.90
23562;DHT22;11959;49.418;8.728;2023-09-30T03:15:28;15.70;99.90
23562;DHT22;11959;49.418;8.728;2023-09-30T03:17:56;15.70;99.90
23562;DHT22;11959;49.418;8.728;2023-09-30T03:20:23;15.70;99.90
23562;DHT22;11959;49.418;8.728;2023-09-30T03:22:50;15.60;99.90
23562;DHT22;11959;49.418;8.728;2023-09-30T03:25:17;15.50;99.90
23562;DHT22;11959;49.418;8.728;2023-09-30T03:27:46;15.40;99.90
23562;DHT22;11959;49.418;8.728;2023-09-30T03:30:13;15.40;99.90
23562;DHT22;11959;49.418;8.728;2023-09-30T03:32:39;15.40;99.90
23562;DHT22;11959;49.418;8.728;2023-09-30T03:35:06;15.30;99.90
23562;DHT22;11959;49.418;8.728;2023-09-30T03:37:36;15.20;99.90
23562;DHT22;11959;49.418;8.728;2023-09-30T03:40:03;15.20;99.90
23562;DHT22;11959;49.418;8.728;2023-09-30T03:42:42;15.20;99.90
23562;DHT22;11959;49.418;8.728;2023-09-30T03:45:09;15.30;99.90
23562;DHT22;11959;49.418;8.728;2023-09-30T03:47:36;15.20;99.90
23562;DHT22;11959;49.418;8.728;2023-09-30T03:50:02;15.10;99.90
23562;DHT22;11959;49.418;8.728;2023-09-30T03:52:29;15.00;99.90
23562;DHT22;11959;49.418;8.728;2023-09-30T03:54:55;15.00;99.90
23562;DHT22;11959;49.418;8.728;2023-09-30T03:57:20;15.00;99.90
23562;DHT22;11959;49.418;8.728;2023-09-30T03:59:46;15.00;99.90
23562;DHT22;11959;49.418;8.728;2023-09-30T04:02:12;15.00;99.90
23562;DHT22;11959;49.418;8.728;2023-09-30T04:04:38;15.00;99.90
23562;DHT22;11959;49.418;8.728;2023-09-30T04:07:04;15.10;99.90
23562;DHT22;11959;49.418;8.728;2023-09-30T04:09:32;15.00;99.90
23562;DHT22;11959;49.418;8.728;2023-09-30T04:11:57;15.00;99.90
23562;DHT22;11959;49.418;8.728;2023-09-30T04:14:23;15.00;99.90
23562;DHT22;11959;49.418;8.728;2023-09-30T04:16:50;14.90;99.90
23562;DHT22;11959;49.418;8.728;2023-09-30T04:19:16;14.90;99.90
23562;DHT22;11959;49.418;8.728;2023-09-30T04:21:42;14.90;99.90
23562;DHT22;11959;49.418;8.728;2023-09-30T04:24:08;14.90;99.90
23562;DHT22;11959;49.418;8.728;2023-09-30T04:26:34;14.90;99.90
23562;DHT22;11959;49.418;8.728;2023-09-30T04:29:00;14.90;99.90
23562;DHT22;11959;49.418;8.728;2023-09-30T04:31:28;14.90;99.90
23562;DHT22;11959;49.418;8.728;2023-09-30T04:33:54;14.80;99.90
23562;DHT22;11959;49.418;8.728;2023-09-30T04:36:20;14.80;99.90
23562;DHT22;11959;49.418;8.728;2023-09-30T04:38:46;14.80;99.90
23562;DHT22;11959;49.418;8.728;2023-09-30T04:41:12;14.80;99.90
23562;DHT22;11959;49.418;8.728;2023-09-30T04:43:38;14.80;99.90
23562;DHT22;11959;49.418;8.728;2023-09-30T04:46:05;14.80;99.90
23562;DHT22;11959;49.418;8.728;2023-09-30T04:48:32;14.90;99.90
23562;DHT22;11959;49.418;8.728;2023-09-30T04:50:58;14.80;99.90
23562;DHT22;11959;49.418;8.728;2023-09-30T04:53:23;14.80;99.90
23562;DHT22;11959;49.418;8.728;2023-09-30T04:55:49;14.80;99.90
23562;DHT22;11959;49.418;8.728;2023-09-30T04:58:16;14.80;99.90
23562;DHT22;11959;49.418;8.728;2023-09-30T05:00:42;14.80;99.90
23562;DHT22;11959;49.418;8.728;2023-09-30T05:03:08;14.80;99.90
23562;DHT22;11959;49.418;8.728;2023-09-30T05:05:34;14.90;99.90
23562;DHT22;11959;49.418;8.728;2023-09-30T05:08:00;14.90;99.90
23562;DHT22;11959;49.418;8.728;2023-09-30T05:10:26;14.90;99.90
23562;DHT22;11959;49.418;8.728;2023-09-30T05:12:52;14.90;99.90
23562;DHT22;11959;49.418;8.728;2023-09-30T05:15:20;14.90;99.90
23562;DHT22;11959;49.418;8.728;2023-09-30T05:17:47;14.90;99.90
23562;DHT22;11959;49.418;8.728;2023-09-30T05:20:14;14.90;99.90
23562;DHT22;11959;49.418;8.728;2023-09-30T05:22:42;15.00;99.90
23562;DHT22;11959;49.418;8.728;2023-09-30T05:25:11;15.00;99.90
23562;DHT22;11959;49.418;8.728;2023-09-30T05:27:37;15.00;99.90
23562;DHT22;11959;49.418;8.728;2023-09-30T05:30:04;15.00;99.90
23562;DHT22;11959;49.418;8.728;2023-09-30T05:32:31;15.00;99.90
23562;DHT22;11959;49.418;8.728;2023-09-30T05:34:57;15.00;99.90
23562;DHT22;11959;49.418;8.728;2023-09-30T05:37:25;15.00;99.90
23562;DHT22;11959;49.418;8.728;2023-09-30T05:39:51;15.00;99.90
23562;DHT22;11959;49.418;8.728;2023-09-30T05:42:17;15.00;99.90
23562;DHT22;11959;49.418;8.728;2023-09-30T05:44:44;15.00;99.90
23562;DHT22;11959;49.418;8.728;2023-09-30T05:47:10;15.00;99.90
23562;DHT22;11959;49.418;8.728;2023-09-30T05:49:36;15.00;99.90
23562;DHT22;11959;49.418;8.728;2023-09-30T05:52:02;15.00;99.90
23562;DHT22;11959;49.418;8.728;2023-09-30T05:54:28;15.00;99.90
23562;DHT22;11959;49.418;8.728;2023-09-30T05:56:54;15.00;99.90
23562;DHT22;11959;49.418;8.728;2023-09-30T05:59:20;15.00;99.90
23562;DHT22;11959;49.418;8.728;2023-09-30T06:01:46;15.00;99.90
23562;DHT22;11959;49.418;8.728;2023-09-30T06:04:12;15.00;99.90
23562;DHT22;11959;49.418;8.728;2023-09-30T06:06:38;15.00;99.90
23562;DHT22;11959;49.418;8.728;2023-09-30T06:09:04;15.00;99.90
23562;DHT22;11959;49.418;8.728;2023-09-30T06:11:33;15.00;99.90
23562;DHT22;11959;49.418;8.728;2023-09-30T06:13:59;15.00;99.90
23562;DHT22;11959;49.418;8.728;2023-09-30T06:16:26;15.00;99.90
23562;DHT22;11959;49.418;8.728;2023-09-30T06:18:55;15.00;99.90
23562;DHT22;11959;49.418;8.728;2023-09-30T06:21:24;15.00;99.90
23562;DHT22;11959;49.418;8.728;2023-09-30T06:23:50;15.00;99.90
23562;DHT22;11959;49.418;8.728;2023-09-30T06:26:19;15.00;99.90
23562;DHT22;11959;49.418;8.728;2023-09-30T06:28:46;15.00;99.90
23562;DHT22;11959;49.418;8.728;2023-09-30T06:31:13;15.00;99.90
23562;DHT22;11959;49.418;8.728;2023-09-30T06:33:39;15.10;99.90
23562;DHT22;11959;49.418;8.728;2023-09-30T06:36:14;15.00;99.90
23562;DHT22;11959;49.418;8.728;2023-09-30T06:38:41;15.10;99.90
23562;DHT22;11959;49.418;8.728;2023-09-30T06:41:15;15.10;99.90
23562;DHT22;11959;49.418;8.728;2023-09-30T06:43:41;15.10;99.90
23562;DHT22;11959;49.418;8.728;2023-09-30T06:46:08;15.10;99.90
23562;DHT22;11959;49.418;8.728;2023-09-30T06:48:35;15.20;99.90
23562;DHT22;11959;49.418;8.728;2023-09-30T06:51:01;15.20;99.90
23562;DHT22;11959;49.418;8.728;2023-09-30T06:53:27;15.20;99.90
23562;DHT22;11959;49.418;8.728;2023-09-30T06:55:53;15.20;99.90
23562;DHT22;11959;49.418;8.728;2023-09-30T06:58:18;15.20;99.90
23562;DHT22;11959;49.418;8.728;2023-09-30T07:00:48;15.20;99.90
23562;DHT22;11959;49.418;8.728;2023-09-30T07:03:15;15.30;99.90
23562;DHT22;11959;49.418;8.728;2023-09-30T07:05:41;15.30;99.90
23562;DHT22;11959;49.418;8.728;2023-09-30T07:08:07;15.30;99.90
23562;DHT22;11959;49.418;8.728;2023-09-30T07:10:33;15.30;99.90
23562;DHT22;11959;49.418;8.728;2023-09-30T07:13:01;15.30;99.90
23562;DHT22;11959;49.418;8.728;2023-09-30T07:15:27;15.30;99.90
23562;DHT22;11959;49.418;8.728;2023-09-30T07:17:53;15.30;99.90
23562;DHT22;11959;49.418;8.728;2023-09-30T07:20:19;15.40;99.90
23562;DHT22;11959;49.418;8.728;2023-09-30T07:22:46;15.40;99.90
23562;DHT22;11959;49.418;8.728;2023-09-30T07:25:12;15.40;99.90
23562;DHT22;11959;49.418;8.728;2023-09-30T07:27:40;15.40;99.90
23562;DHT22;11959;49.418;8.728;2023-09-30T07:30:06;15.40;99.90
23562;DHT22;11959;49.418;8.728;2023-09-30T07:32:32;15.40;99.90
23562;DHT22;11959;49.418;8.728;2023-09-30T07:34:58;15.40;99.90
23562;DHT22;11959;49.418;8.728;2023-09-30T07:37:23;15.40;99.90
23562;DHT22;11959;49.418;8.728;2023-09-30T07:39:49;15.50;99.90
23562;DHT22;11959;49.418;8.728;2023-09-30T07:42:15;15.50;99.90
23562;DHT22;11959;49.418;8.728;2023-09-30T07:44:42;15.40;99.90
23562;DHT22;11959;49.418;8.728;2023-09-30T07:47:08;15.50;99.90
23562;DHT22;11959;49.418;8.728;2023-09-30T07:49:38;15.50;99.90
23562;DHT22;11959;49.418;8.728;2023-09-30T07:52:03;15.50;99.90
23562;DHT22;11959;49.418;8.728;2023-09-30T07:54:29;15.50;99.90
23562;DHT22;11959;49.418;8.728;2023-09-30T07:56:55;15.50;99.90
23562;DHT22;11959;49.418;8.728;2023-09-30T07:59:21;15.50;99.90
23562;DHT22;11959;49.418;8.728;2023-09-30T08:01:48;15.50;99.90
23562;DHT22;11959;49.418;8.728;2023-09-30T08:04:13;15.60;99.90
23562;DHT22;11959;49.418;8.728;2023-09-30T08:06:39;15.60;99.90
23562;DHT22;11959;49.418;8.728;2023-09-30T08:09:05;15.60;99.90
23562;DHT22;11959;49.418;8.728;2023-09-30T08:11:36;15.60;99.90
23562;DHT22;11959;49.418;8.728;2023-09-30T08:14:05;15.70;99.90
23562;DHT22;11959;49.418;8.728;2023-09-30T08:16:38;15.60;99.90
23562;DHT22;11959;49.418;8.728;2023-09-30T08:19:04;15.70;99.90
23562;DHT22;11959;49.418;8.728;2023-09-30T08:21:30;15.70;99.90
23562;DHT22;11959;49.418;8.728;2023-09-30T08:23:57;15.70;99.90
23562;DHT22;11959;49.418;8.728;2023-09-30T08:26:23;15.70;99.90
23562;DHT22;11959;49.418;8.728;2023-09-30T08:28:48;15.70;99.90
23562;DHT22;11959;49.418;8.728;2023-09-30T08:31:14;15.70;99.90
23562;DHT22;11959;49.418;8.728;2023-09-30T08:33:40;15.70;99.90
23562;DHT22;11959;49.418;8.728;2023-09-30T08:36:09;15.80;99.90
23562;DHT22;11959;49.418;8.728;2023-09-30T08:38:39;15.80;99.90
23562;DHT22;11959;49.418;8.728;2023-09-30T08:41:05;15.80;99.90
23562;DHT22;11959;49.418;8.728;2023-09-30T08:43:37;15.90;99.90
23562;DHT22;11959;49.418;8.728;2023-09-30T08:46:04;15.80;99.90
23562;DHT22;11959;49.418;8.728;2023-09-30T08:48:32;15.90;99.90
23562;DHT22;11959;49.418;8.728;2023-09-30T08:50:59;16.00;99.90
23562;DHT22;11959;49.418;8.728;2023-09-30T08:53:25;16.00;99.90
23562;DHT22;11959;49.418;8.728;2023-09-30T08:55:56;16.00;99.90
23562;DHT22;11959;49.418;8.728;2023-09-30T08:58:28;16.00;99.90
23562;DHT22;11959;49.418;8.728;2023-09-30T09:00:54;16.00;99.90
23562;DHT22;11959;49.418;8.728;2023-09-30T09:03:22;16.00;99.90
23562;DHT22;11959;49.418;8.728;2023-09-30T09:05:57;16.00;99.90
23562;DHT22;11959;49.418;8.728;2023-09-30T09:08:25;16.10;99.90
23562;DHT22;11959;49.418;8.728;2023-09-30T09:10:58;16.10;99.90
23562;DHT22;11959;49.418;8.728;2023-09-30T09:13:27;16.20;99.90
23562;DHT22;11959;49.418;8.728;2023-09-30T09:16:09;16.20;99.90
23562;DHT22;11959;49.418;8.728;2023-09-30T09:18:35;16.20;99.90
23562;DHT22;11959;49.418;8.728;2023-09-30T09:21:12;16.30;99.90
23562;DHT22;11959;49.418;8.728;2023-09-30T09:23:45;16.30;99.90
23562;DHT22;11959;49.418;8.728;2023-09-30T09:28:50;16.40;99.90
23562;DHT22;11959;49.418;8.728;2023-09-30T09:31:35;16.50;99.90
23562;DHT22;11959;49.418;8.728;2023-09-30T09:34:13;16.60;99.90
23562;DHT22;11959;49.418;8.728;2023-09-30T09:36:44;16.70;99.90
23562;DHT22;11959;49.418;8.728;2023-09-30T09:39:10;16.70;99.90
23562;DHT22;11959;49.418;8.728;2023-09-30T09:41:59;16.80;99.90
23562;DHT22;11959;49.418;8.728;2023-09-30T09:44:27;16.80;99.90
23562;DHT22;11959;49.418;8.728;2023-09-30T09:46:53;16.90;99.90
23562;DHT22;11959;49.418;8.728;2023-09-30T09:49:19;17.00;99.90
23562;DHT22;11959;49.418;8.728;2023-09-30T09:51:50;17.00;99.90
23562;DHT22;11959;49.418;8.728;2023-09-30T09:54:17;17.00;99.90
23562;DHT22;11959;49.418;8.728;2023-09-30T09:56:46;17.10;99.90
23562;DHT22;11959;49.418;8.728;2023-09-30T09:59:12;17.10;99.90
23562;DHT22;11959;49.418;8.728;2023-09-30T10:01:40;17.10;99.90
23562;DHT22;11959;49.418;8.728;2023-09-30T10:04:06;17.20;99.90
23562;DHT22;11959;49.418;8.728;2023-09-30T10:06:34;17.20;99.90
23562;DHT22;11959;49.418;8.728;2023-09-30T10:09:07;17.30;99.90
23562;DHT22;11959;49.418;8.728;2023-09-30T10:11:35;17.30;99.90
23562;DHT22;11959;49.418;8.728;2023-09-30T10:14:01;17.30;99.90
23562;DHT22;11959;49.418;8.728;2023-09-30T10:19:20;17.50;99.90
23562;DHT22;11959;49.418;8.728;2023-09-30T10:24:41;17.60;99.90
23562;DHT22;11959;49.418;8.728;2023-09-30T10:29:57;17.70;99.90
23562;DHT22;11959;49.418;8.728;2023-09-30T10:37:43;18.00;99.90
23562;DHT22;11959;49.418;8.728;2023-09-30T10:40:09;18.10;99.90
23562;DHT22;11959;49.418;8.728;2023-09-30T10:42:45;18.10;99.90
23562;DHT22;11959;49.418;8.728;2023-09-30T10:45:43;18.20;99.90
23562;DHT22;11959;49.418;8.728;2023-09-30T10:53:45;18.40;99.90
23562;DHT22;11959;49.418;8.728;2023-09-30T10:56:11;18.30;99.90
23562;DHT22;11959;49.418;8.728;2023-09-30T10:58:41;18.40;99.90
23562;DHT22;11959;49.418;8.728;2023-09-30T11:01:08;18.50;99.90
23562;DHT22;11959;49.418;8.728;2023-09-30T11:03:33;18.60;99.90
23562;DHT22;11959;49.418;8.728;2023-09-30T11:05:59;18.60;99.90
23562;DHT22;11959;49.418;8.728;2023-09-30T11:08:28;18.60;99.90
23562;DHT22;11959;49.418;8.728;2023-09-30T11:10:55;18.60;99.90
23562;DHT22;11959;49.418;8.728;2023-09-30T11:13:22;18.70;99.90
23562;DHT22;11959;49.418;8.728;2023-09-30T11:15:48;18.80;99.90
23562;DHT22;11959;49.418;8.728;2023-09-30T11:18:24;18.70;99.90
23562;DHT22;11959;49.418;8.728;2023-09-30T11:20:50;18.70;99.90
23562;DHT22;11959;49.418;8.728;2023-09-30T11:23:16;18.70;99.90
23562;DHT22;11959;49.418;8.728;2023-09-30T11:25:41;18.80;99.90
23562;DHT22;11959;49.418;8.728;2023-09-30T11:28:17;18.90;99.90
23562;DHT22;11959;49.418;8.728;2023-09-30T11:33:23;19.00;99.90
23562;DHT22;11959;49.418;8.728;2023-09-30T11:36:16;19.10;99.90
23562;DHT22;11959;49.418;8.728;2023-09-30T11:38:45;19.20;99.90
23562;DHT22;11959;49.418;8.728;2023-09-30T11:41:17;19.20;99.90
23562;DHT22;11959;49.418;8.728;2023-09-30T11:49:40;19.20;99.90
23562;DHT22;11959;49.418;8.728;2023-09-30T11:52:13;19.20;99.90
23562;DHT22;11959;49.418;8.728;2023-09-30T11:54:45;19.20;99.90
23562;DHT22;11959;49.418;8.728;2023-09-30T11:59:41;19.40;99.90
23562;DHT22;11959;49.418;8.728;2023-09-30T12:02:10;19.30;99.90
23562;DHT22;11959;49.418;8.728;2023-09-30T12:04:36;19.30;99.90
23562;DHT22;11959;49.418;8.728;2023-09-30T12:07:02;19.40;99.90
23562;DHT22;11959;49.418;8.728;2023-09-30T12:09:28;19.30;99.90
23562;DHT22;11959;49.418;8.728;2023-09-30T12:11:55;19.30;99.90
23562;DHT22;11959;49.418;8.728;2023-09-30T12:14:23;19.30;99.90
23562;DHT22;11959;49.418;8.728;2023-09-30T12:16:49;19.20;99.90
23562;DHT22;11959;49.418;8.728;2023-09-30T12:19:16;19.20;99.90
23562;DHT22;11959;49.418;8.728;2023-09-30T12:21:44;19.10;99.90
23562;DHT22;11959;49.418;8.728;2023-09-30T12:24:13;19.10;99.90
23562;DHT22;11959;49.418;8.728;2023-09-30T12:26:48;19.10;99.90
23562;DHT22;11959;49.418;8.728;2023-09-30T12:29:18;19.20;99.90
23562;DHT22;11959;49.418;8.728;2023-09-30T12:31:44;19.40;99.90
23562;DHT22;11959;49.418;8.728;2023-09-30T12:34:11;19.40;99.90
23562;DHT22;11959;49.418;8.728;2023-09-30T12:36:39;19.30;99.90
23562;DHT22;11959;49.418;8.728;2023-09-30T12:39:05;19.40;99.90
23562;DHT22;11959;49.418;8.728;2023-09-30T12:41:43;19.40;99.90
23562;DHT22;11959;49.418;8.728;2023-09-30T12:44:09;19.40;99.90
23562;DHT22;11959;49.418;8.728;2023-09-30T12:46:35;19.40;99.90
23562;DHT22;11959;49.418;8.728;2023-09-30T12:49:06;19.50;99.90
23562;DHT22;11959;49.418;8.728;2023-09-30T12:51:32;19.50;99.90
23562;DHT22;11959;49.418;8.728;2023-09-30T12:53:59;19.60;99.90
23562;DHT22;11959;49.418;8.728;2023-09-30T12:56:25;19.60;99.90
23562;DHT22;11959;49.418;8.728;2023-09-30T12:58:51;19.70;99.90
23562;DHT22;11959;49.418;8.728;2023-09-30T13:01:17;19.70;99.90
23562;DHT22;11959;49.418;8.728;2023-09-30T13:03:46;19.70;99.90
23562;DHT22;11959;49.418;8.728;2023-09-30T13:06:12;19.70;99.90
23562;DHT22;11959;49.418;8.728;2023-09-30T13:08:38;19.70;99.90
23562;DHT22;11959;49.418;8.728;2023-09-30T13:11:04;19.70;99.90
23562;DHT22;11959;49.418;8.728;2023-09-30T13:13:31;19.60;99.90
23562;DHT22;11959;49.418;8.728;2023-09-30T13:16:04;19.60;99.90
23562;DHT22;11959;49.418;8.728;2023-09-30T13:18:31;19.50;99.90
23562;DHT22;11959;49.418;8.728;2023-09-30T13:20:58;19.50;99.90
23562;DHT22;11959;49.418;8.728;2023-09-30T13:23:23;19.50;99.90
23562;DHT22;11959;49.418;8.728;2023-09-30T13:25:49;19.50;99.90
23562;DHT22;11959;49.418;8.728;2023-09-30T13:28:15;19.60;99.90
23562;DHT22;11959;49.418;8.728;2023-09-30T13:30:42;19.60;99.90
23562;DHT22;11959;49.418;8.728;2023-09-30T13:33:07;19.60;99.90
23562;DHT22;11959;49.418;8.728;2023-09-30T13:35:33;19.60;99.90
23562;DHT22;11959;49.418;8.728;2023-09-30T13:38:01;19.60;99.90
23562;DHT22;11959;49.418;8.728;2023-09-30T13:40:29;19.60;99.90
23562;DHT22;11959;49.418;8.728;2023-09-30T13:42:54;19.60;99.90
23562;DHT22;11959;49.418;8.728;2023-09-30T13:45:21;19.70;99.90
23562;DHT22;11959;49.418;8.728;2023-09-30T13:47:47;19.70;99.90
23562;DHT22;11959;49.418;8.728;2023-09-30T13:50:13;19.80;99.90
23562;DHT22;11959;49.418;8.728;2023-09-30T13:52:38;19.70;99.90
23562;DHT22;11959;49.418;8.728;2023-09-30T13:55:04;19.70;99.90
23562;DHT22;11959;49.418;8.728;2023-09-30T13:57:30;19.80;99.90
23562;DHT22;11959;49.418;8.728;2023-09-30T13:59:56;19.80;99.90
23562;DHT22;11959;49.418;8.728;2023-09-30T14:02:22;19.90;99.90
23562;DHT22;11959;49.418;8.728;2023-09-30T14:04:48;19.90;99.90
23562;DHT22;11959;49.418;8.728;2023-09-30T14:07:14;19.80;99.90
23562;DHT22;11959;49.418;8.728;2023-09-30T14:09:40;19.90;99.90
23562;DHT22;11959;49.418;8.728;2023-09-30T14:12:05;19.80;99.90
23562;DHT22;11959;49.418;8.728;2023-09-30T14:14:34;19.70;99.90
23562;DHT22;11959;49.418;8.728;2023-09-30T14:16:59;19.80;99.90
23562;DHT22;11959;49.418;8.728;2023-09-30T14:19:25;19.80;99.90
23562;DHT22;11959;49.418;8.728;2023-09-30T14:21:51;19.70;99.90
23562;DHT22;11959;49.418;8.728;2023-09-30T14:24:17;19.70;99.90
23562;DHT22;11959;49.418;8.728;2023-09-30T14:26:42;19.70;99.90
23562;DHT22;11959;49.418;8.728;2023-09-30T14:29:09;19.70;99.90
23562;DHT22;11959;49.418;8.728;2023-09-30T14:31:37;19.70;99.90
23562;DHT22;11959;49.418;8.728;2023-09-30T14:34:03;19.80;99.90
23562;DHT22;11959;49.418;8.728;2023-09-30T14:36:30;19.90;99.90
23562;DHT22;11959;49.418;8.728;2023-09-30T14:38:58;19.90;99.90
23562;DHT22;11959;49.418;8.728;2023-09-30T14:41:24;20.00;99.90
23562;DHT22;11959;49.418;8.728;2023-09-30T14:43:50;19.90;99.90
23562;DHT22;11959;49.418;8.728;2023-09-30T14:46:15;19.80;99.90
23562;DHT22;11959;49.418;8.728;2023-09-30T14:48:41;19.70;99.90
23562;DHT22;11959;49.418;8.728;2023-09-30T14:51:07;19.70;99.90
23562;DHT22;11959;49.418;8.728;2023-09-30T14:53:33;19.70;99.90
23562;DHT22;11959;49.418;8.728;2023-09-30T14:55:59;19.70;99.90
23562;DHT22;11959;49.418;8.728;2023-09-30T14:58:25;19.60;99.90
23562;DHT22;11959;49.418;8.728;2023-09-30T15:00:50;19.60;99.90
23562;DHT22;11959;49.418;8.728;2023-09-30T15:03:16;19.60;99.90
23562;DHT22;11959;49.418;8.728;2023-09-30T15:05:41;19.50;99.90
23562;DHT22;11959;49.418;8.728;2023-09-30T15:08:07;19.50;99.90
23562;DHT22;11959;49.418;8.728;2023-09-30T15:10:36;19.40;99.90
23562;DHT22;11959;49.418;8.728;2023-09-30T15:13:02;19.30;99.90
23562;DHT22;11959;49.418;8.728;2023-09-30T15:15:28;19.30;99.90
23562;DHT22;11959;49.418;8.728;2023-09-30T15:17:54;19.30;99.90
23562;DHT22;11959;49.418;8.728;2023-09-30T15:20:20;19.20;99.90
23562;DHT22;11959;49.418;8.728;2023-09-30T15:22:46;19.20;99.90
23562;DHT22;11959;49.418;8.728;2023-09-30T15:25:11;19.20;99.90
23562;DHT22;11959;49.418;8.728;2023-09-30T15:27:37;19.10;99.90
23562;DHT22;11959;49.418;8.728;2023-09-30T15:30:03;19.10;99.90
23562;DHT22;11959;49.418;8.728;2023-09-30T15:32:31;19.00;99.90
23562;DHT22;11959;49.418;8.728;2023-09-30T15:34:57;18.90;99.90
23562;DHT22;11959;49.418;8.728;2023-09-30T15:37:23;18.80;99.90
23562;DHT22;11959;49.418;8.728;2023-09-30T15:39:48;18.80;99.90
23562;DHT22;11959;49.418;8.728;2023-09-30T15:42:14;18.80;99.90
23562;DHT22;11959;49.418;8.728;2023-09-30T15:44:41;18.70;99.90
23562;DHT22;11959;49.418;8.728;2023-09-30T15:47:07;18.70;99.90
23562;DHT22;11959;49.418;8.728;2023-09-30T15:49:34;18.60;99.90
23562;DHT22;11959;49.418;8.728;2023-09-30T15:52:00;18.50;99.90
23562;DHT22;11959;49.418;8.728;2023-09-30T15:54:26;18.50;99.90
23562;DHT22;11959;49.418;8.728;2023-09-30T15:56:51;18.40;99.90
23562;DHT22;11959;49.418;8.728;2023-09-30T15:59:17;18.40;99.90
23562;DHT22;11959;49.418;8.728;2023-09-30T16:01:43;18.30;99.90
23562;DHT22;11959;49.418;8.728;2023-09-30T16:04:09;18.30;99.90